Time;durP1;ratioP1;P1;durP2;ratioP2;P2;SDS_P1;SDS_P2;PMS_P1;PMS_P2;Temp;Humidity;BMP_temperature;BMP_pressure;BME280_temperature;BME280_humidity;BME280_pressure;Samples;Min_cycle;Max_cycle;Signal;HPM_P1;HPM_P2
2022/03/26 00:00:34;;;;;;;0.67;0.67;;;;;;;8.02;38.32;96126.97;5091671;28;20881;-54
2022/03/26 00:03:02;;;;;;;0.50;0.43;;;;;;;7.96;38.35;96131.34;5091612;28;20428;-55
2022/03/26 00:05:31;;;;;;;1.53;1.43;;;;;;;7.86;39.39;96127.66;5094514;28;20424;-53
2022/03/26 00:07:59;;;;;;;0.30;0.20;;;;;;;8.25;38.77;96129.50;5093555;28;20453;-53
2022/03/26 00:10:28;;;;;;;0.70;0.50;;;;;;;8.13;38.78;96131.41;5095279;28;20463;-54
2022/03/26 00:12:57;;;;;;;0.50;0.50;;;;;;;8.33;38.60;96131.81;5095982;28;20431;-54
2022/03/26 00:15:26;;;;;;;0.53;0.43;;;;;;;8.41;38.36;96106.88;5096317;28;20444;-53
2022/03/26 00:17:56;;;;;;;0.50;0.50;;;;;;;8.03;39.61;96128.56;5095945;28;20471;-54
2022/03/26 00:20:24;;;;;;;0.30;0.30;;;;;;;8.39;39.00;96133.53;5095890;28;20921;-54
2022/03/26 00:22:52;;;;;;;0.40;0.40;;;;;;;8.29;39.99;96135.97;5096148;28;20511;-54
2022/03/26 00:25:21;;;;;;;0.40;0.30;;;;;;;7.89;40.18;96090.25;5095849;28;20806;-54
2022/03/26 00:27:50;;;;;;;0.40;0.30;;;;;;;8.18;39.78;96126.22;5096112;28;20431;-53
2022/03/26 00:30:18;;;;;;;0.57;0.57;;;;;;;7.99;39.91;96125.59;5095674;28;20511;-54
2022/03/26 00:32:47;;;;;;;0.40;0.30;;;;;;;8.40;39.21;96137.00;5095729;28;20464;-54
2022/03/26 00:35:17;;;;;;;1.13;0.63;;;;;;;8.26;40.07;96128.50;5095680;28;20798;-54
2022/03/26 00:37:45;;;;;;;1.80;1.80;;;;;;;8.29;39.33;96126.22;5095521;28;20467;-54
2022/03/26 00:40:14;;;;;;;0.50;0.50;;;;;;;8.52;38.80;96119.25;5095614;28;20889;-53
2022/03/26 00:42:42;;;;;;;0.40;0.30;;;;;;;8.87;42.42;96111.94;5095827;28;20431;-53
2022/03/26 00:45:11;;;;;;;4.93;2.63;;;;;;;8.73;38.89;96108.78;5095460;28;20465;-54
2022/03/26 00:47:39;;;;;;;1.40;1.40;;;;;;;8.15;39.63;96109.00;5095739;28;20463;-54
2022/03/26 00:50:10;;;;;;;0.50;0.50;;;;;;;7.98;40.52;96118.69;5095615;28;20506;-54
2022/03/26 00:52:40;;;;;;;0.70;0.70;;;;;;;8.24;40.46;96123.47;5095510;28;20498;-54
2022/03/26 00:55:09;;;;;;;0.70;0.63;;;;;;;8.20;39.94;96118.84;5095256;28;20436;-54
2022/03/26 00:57:37;;;;;;;0.30;0.20;;;;;;;8.83;38.21;96116.09;5095274;28;20511;-53
2022/03/26 01:00:08;;;;;;;0.30;0.20;;;;;;;8.72;38.25;96109.03;5095056;28;20432;-53
2022/03/26 01:02:36;;;;;;;0.30;0.20;;;;;;;8.17;38.07;95998.66;5094806;28;20802;-53
2022/03/26 01:05:06;;;;;;;0.30;0.30;;;;;;;8.90;37.75;96114.91;5095361;28;20428;-53
2022/03/26 01:07:34;;;;;;;0.40;0.40;;;;;;;8.95;37.27;96117.63;5095061;28;20524;-53
2022/03/26 01:10:06;;;;;;;0.30;0.20;;;;;;;9.05;37.57;96122.31;5094787;28;21000;-53
2022/03/26 01:12:35;;;;;;;0.30;0.20;;;;;;;8.71;38.42;96136.50;5095266;28;20459;-53
2022/03/26 01:15:04;;;;;;;0.30;0.20;;;;;;;8.47;38.98;96132.38;5094288;28;20463;-53
2022/03/26 01:17:32;;;;;;;5.67;1.10;;;;;;;8.70;38.49;96125.13;5094860;28;20511;-53
2022/03/26 01:20:01;;;;;;;0.30;0.20;;;;;;;8.22;39.48;96108.88;5095061;28;20486;-53
2022/03/26 01:22:29;;;;;;;0.30;0.30;;;;;;;8.50;39.86;96137.97;5094758;28;20793;-53
2022/03/26 01:24:57;;;;;;;0.40;0.30;;;;;;;8.73;38.74;96137.06;5094756;28;20556;-53
2022/03/26 01:27:27;;;;;;;0.77;0.27;;;;;;;8.68;39.37;96132.47;5094528;28;20417;-53
2022/03/26 01:29:56;;;;;;;0.40;0.40;;;;;;;8.14;40.47;96128.53;5094621;28;20980;-53
2022/03/26 01:32:24;;;;;;;0.40;0.40;;;;;;;7.83;41.10;96136.84;5094903;28;20435;-53
2022/03/26 01:34:52;;;;;;;0.40;0.30;;;;;;;8.05;40.58;96135.19;5094607;28;20550;-53
2022/03/26 01:37:21;;;;;;;0.30;0.20;;;;;;;8.23;40.66;96139.53;5094499;28;20523;-53
2022/03/26 01:39:50;;;;;;;0.30;0.20;;;;;;;8.38;40.22;96139.84;5094796;28;20498;-53
2022/03/26 01:42:19;;;;;;;0.30;0.20;;;;;;;8.56;39.41;96130.94;5094662;28;20466;-53
2022/03/26 01:44:49;;;;;;;0.50;0.50;;;;;;;8.70;39.52;96148.13;5094322;28;20503;-53
2022/03/26 01:47:18;;;;;;;0.30;0.20;;;;;;;8.77;38.77;96143.47;5094417;28;20436;-53
2022/03/26 01:49:46;;;;;;;1.97;0.93;;;;;;;8.70;39.35;96148.91;5094613;28;20416;-53
2022/03/26 01:52:15;;;;;;;0.30;0.20;;;;;;;8.57;39.10;96151.03;5094408;28;20558;-53
2022/03/26 01:54:44;;;;;;;0.30;0.20;;;;;;;8.38;40.30;96153.06;5094570;28;20425;-53
2022/03/26 01:57:12;;;;;;;0.40;0.40;;;;;;;7.92;41.61;96159.22;5094012;28;20989;-54
2022/03/26 01:59:42;;;;;;;0.30;0.20;;;;;;;8.06;40.54;96157.13;5094325;28;20489;-54
2022/03/26 02:02:13;;;;;;;0.30;0.20;;;;;;;8.29;40.84;96162.41;5094311;28;20516;-54
2022/03/26 02:04:41;;;;;;;0.30;0.30;;;;;;;8.32;40.94;96168.00;5093787;28;20455;-54
2022/03/26 02:07:10;;;;;;;0.40;0.33;;;;;;;8.43;40.57;96168.19;5094175;28;20906;-54
2022/03/26 02:09:38;;;;;;;0.30;0.20;;;;;;;8.13;41.44;96165.72;5093655;28;20547;-54
2022/03/26 02:12:25;;;;;;;0.30;0.20;;;;;;;8.16;41.24;96163.44;5093743;28;21015;-54
2022/03/26 02:14:53;;;;;;;0.30;0.20;;;;;;;8.25;41.31;96162.00;5094121;28;20854;-54
2022/03/26 02:17:23;;;;;;;0.30;0.20;;;;;;;8.21;41.39;96170.66;5093990;28;20516;-54
2022/03/26 02:19:54;;;;;;;1.33;1.33;;;;;;;8.06;41.52;96178.25;5093718;28;20971;-54
2022/03/26 02:22:23;;;;;;;0.30;0.20;;;;;;;7.90;42.03;96184.22;5093913;28;20535;-54
2022/03/26 02:24:51;;;;;;;0.30;0.20;;;;;;;6.85;43.06;96109.53;5093608;28;20467;-54
2022/03/26 02:27:22;;;;;;;0.30;0.20;;;;;;;7.57;42.38;96192.72;5092677;28;20440;-54
2022/03/26 02:29:50;;;;;;;0.30;0.20;;;;;;;7.55;43.33;96182.41;5093870;28;20519;-54
2022/03/26 02:32:20;;;;;;;0.30;0.20;;;;;;;7.81;42.67;96186.44;5093402;28;20506;-54
2022/03/26 02:34:49;;;;;;;0.30;0.20;;;;;;;7.62;42.75;96184.91;5093421;28;20924;-54
2022/03/26 02:37:33;;;;;;;0.40;0.20;;;;;;;6.85;44.63;96204.41;5093394;28;20421;-54
2022/03/26 02:40:06;;;;;;;0.40;0.30;;;;;;;7.44;42.80;96199.03;5093360;28;20511;-54
2022/03/26 02:42:35;;;;;;;0.30;0.20;;;;;;;7.68;41.65;96208.56;5093172;28;20481;-53
2022/03/26 02:45:05;;;;;;;0.30;0.30;;;;;;;7.55;41.99;96214.06;5093159;28;20462;-54
2022/03/26 02:47:33;;;;;;;1.07;0.53;;;;;;;7.09;42.97;96195.53;5093320;28;20493;-54
2022/03/26 02:50:01;;;;;;;0.30;0.30;;;;;;;7.08;43.66;96212.38;5093171;28;20432;-54
2022/03/26 02:52:30;;;;;;;0.30;0.30;;;;;;;7.37;42.28;96222.06;5092842;28;20464;-54
2022/03/26 02:55:00;;;;;;;0.40;0.40;;;;;;;7.36;42.39;96224.94;5093216;28;20433;-54
2022/03/26 02:57:28;;;;;;;0.30;0.20;;;;;;;7.49;42.78;96220.25;5093078;28;20459;-54
2022/03/26 02:59:56;;;;;;;0.30;0.20;;;;;;;7.49;43.72;96222.88;5092819;28;20511;-54
2022/03/26 03:02:24;;;;;;;0.40;0.30;;;;;;;7.13;44.28;96217.78;5092705;28;20507;-54
2022/03/26 03:04:53;;;;;;;0.40;0.37;;;;;;;6.66;45.83;96210.72;5093027;28;20437;-54
2022/03/26 03:07:22;;;;;;;0.37;0.30;;;;;;;6.51;47.37;96218.19;5092764;28;20452;-54
2022/03/26 03:09:51;;;;;;;0.30;0.20;;;;;;;6.89;46.20;96231.91;5092257;28;20464;-54
2022/03/26 03:12:22;;;;;;;0.30;0.20;;;;;;;6.95;44.89;96220.47;5092140;28;20468;-54
2022/03/26 03:14:51;;;;;;;0.30;0.20;;;;;;;7.18;45.11;96222.38;5092812;28;20527;-54
2022/03/26 03:17:20;;;;;;;0.30;0.20;;;;;;;7.17;44.52;96233.94;5092443;28;20429;-54
2022/03/26 03:19:48;;;;;;;0.30;0.20;;;;;;;7.19;44.55;96237.94;5092488;28;20455;-54
2022/03/26 03:22:16;;;;;;;0.50;0.33;;;;;;;7.03;45.40;96238.63;5092373;28;20800;-54
2022/03/26 03:24:45;;;;;;;1.43;1.43;;;;;;;6.51;46.94;96239.28;5092212;28;20905;-54
2022/03/26 03:27:13;;;;;;;0.60;0.60;;;;;;;6.89;46.15;96234.53;5092017;28;20523;-54
2022/03/26 03:29:43;;;;;;;0.30;0.30;;;;;;;6.59;47.24;96244.25;5092181;28;20452;-54
2022/03/26 03:32:12;;;;;;;0.40;0.30;;;;;;;5.95;49.53;96240.28;5092147;28;20507;-54
2022/03/26 03:34:40;;;;;;;5.83;0.67;;;;;;;6.11;47.99;96246.81;5092216;28;20507;-54
2022/03/26 03:37:08;;;;;;;0.40;0.40;;;;;;;6.02;48.83;96251.56;5092372;28;20886;-54
2022/03/26 03:39:37;;;;;;;0.30;0.20;;;;;;;5.72;48.15;96166.41;5091991;28;20465;-54
2022/03/26 03:42:06;;;;;;;0.30;0.20;;;;;;;5.40;51.50;96259.56;5092341;28;20542;-54
2022/03/26 03:44:34;;;;;;;0.60;0.60;;;;;;;5.01;52.25;96269.31;5092175;28;20504;-54
2022/03/26 03:47:05;;;;;;;0.50;0.50;;;;;;;5.03;51.24;96272.53;5092125;28;21004;-54
2022/03/26 03:49:33;;;;;;;1.17;0.63;;;;;;;5.13;51.09;96270.22;5092269;28;20424;-54
2022/03/26 03:52:04;;;;;;;0.30;0.20;;;;;;;5.85;48.02;96271.56;5091661;28;21069;-54
2022/03/26 03:54:32;;;;;;;0.30;0.20;;;;;;;6.09;45.82;96265.47;5092013;28;20831;-54
2022/03/26 03:57:00;;;;;;;0.30;0.20;;;;;;;6.11;46.92;96271.31;5092202;28;20432;-54
2022/03/26 03:59:29;;;;;;;0.30;0.20;;;;;;;6.12;47.67;96275.53;5091914;28;20464;-54
2022/03/26 04:01:57;;;;;;;0.30;0.30;;;;;;;5.90;47.31;96218.28;5092144;28;20429;-54
2022/03/26 04:04:27;;;;;;;0.30;0.20;;;;;;;6.16;48.12;96276.72;5091984;28;20436;-54
2022/03/26 04:06:55;;;;;;;0.30;0.20;;;;;;;6.20;48.20;96285.78;5091681;28;20510;-54
2022/03/26 04:09:24;;;;;;;0.30;0.20;;;;;;;6.49;47.92;96286.91;5091529;28;20476;-54
2022/03/26 04:11:52;;;;;;;0.30;0.20;;;;;;;6.53;47.13;96284.66;5091590;28;20511;-54
2022/03/26 04:14:21;;;;;;;0.43;0.43;;;;;;;6.63;47.77;96290.22;5091740;28;20468;-54
2022/03/26 04:16:49;;;;;;;0.40;0.20;;;;;;;6.72;47.43;96291.50;5091541;28;20462;-54
2022/03/26 04:19:18;;;;;;;0.47;0.30;;;;;;;6.53;48.00;96295.97;5091717;28;20464;-54
2022/03/26 04:21:48;;;;;;;0.30;0.20;;;;;;;6.31;49.02;96290.34;5091894;28;20487;-54
2022/03/26 04:24:16;;;;;;;0.30;0.20;;;;;;;6.43;47.97;96294.88;5091960;28;20859;-54
2022/03/26 04:26:47;;;;;;;0.40;0.30;;;;;;;6.39;48.75;96295.31;5091652;28;20458;-54
2022/03/26 04:29:15;;;;;;;0.40;0.30;;;;;;;6.45;48.96;96298.91;5091687;28;20528;-54
2022/03/26 04:31:44;;;;;;;0.30;0.20;;;;;;;6.31;49.52;96311.41;5091395;28;20425;-54
2022/03/26 04:34:12;;;;;;;0.70;0.70;;;;;;;6.27;49.71;96318.09;5091751;28;20432;-53
2022/03/26 04:36:41;;;;;;;0.30;0.20;;;;;;;6.30;49.21;96314.22;5090905;28;20527;-53
2022/03/26 04:39:10;;;;;;;0.30;0.30;;;;;;;6.40;48.93;96315.34;5091364;28;20527;-52
2022/03/26 04:41:39;;;;;;;0.40;0.30;;;;;;;6.60;48.49;96323.06;5091870;28;20464;-53
2022/03/26 04:44:07;;;;;;;0.50;0.20;;;;;;;6.51;49.71;96326.19;5091450;28;20460;-53
2022/03/26 04:46:36;;;;;;;0.40;0.33;;;;;;;6.50;49.02;96319.31;5091920;28;20554;-54
2022/03/26 04:49:05;;;;;;;0.30;0.23;;;;;;;6.63;48.04;96333.13;5091679;28;20497;-54
2022/03/26 04:51:33;;;;;;;0.60;0.40;;;;;;;6.54;48.91;96341.56;5094710;28;20456;-53
2022/03/26 04:54:01;;;;;;;3.47;3.23;;;;;;;6.63;48.46;96340.25;5094869;28;20563;-54
2022/03/26 04:56:31;;;;;;;0.67;0.67;;;;;;;6.70;48.78;96341.78;5094841;28;20428;-54
2022/03/26 04:58:59;;;;;;;2.40;0.40;;;;;;;6.59;49.56;96347.78;5095466;28;20436;-54
2022/03/26 05:01:28;;;;;;;0.30;0.30;;;;;;;6.62;48.45;96349.97;5095112;28;20801;-54
2022/03/26 05:03:56;;;;;;;1.47;1.17;;;;;;;6.66;48.51;96355.59;5095043;28;20439;-54
2022/03/26 05:06:25;;;;;;;0.40;0.30;;;;;;;6.36;52.23;96361.59;5094962;28;20436;-54
2022/03/26 05:08:53;;;;;;;0.40;0.30;;;;;;;6.27;50.82;96357.59;5094944;28;20471;-54
2022/03/26 05:11:22;;;;;;;0.30;0.23;;;;;;;6.37;50.85;96359.75;5095182;28;20424;-53
2022/03/26 05:13:52;;;;;;;0.97;0.97;;;;;;;6.60;49.86;96353.84;5095141;28;20471;-53
2022/03/26 05:16:21;;;;;;;2.20;0.77;;;;;;;6.19;51.95;96365.78;5095022;28;20429;-54
2022/03/26 05:18:49;;;;;;;0.67;0.67;;;;;;;6.57;49.82;96356.91;5094807;28;20428;-54
2022/03/26 05:21:18;;;;;;;3.27;0.50;;;;;;;6.85;50.14;96365.94;5094725;28;20420;-54
2022/03/26 05:23:46;;;;;;;0.40;0.30;;;;;;;6.97;49.64;96366.81;5094623;28;20424;-53
2022/03/26 05:26:14;;;;;;;1.30;1.30;;;;;;;6.90;50.08;96362.66;5094924;28;20428;-54
2022/03/26 05:28:43;;;;;;;0.40;0.30;;;;;;;7.25;48.98;96363.63;5094594;28;20424;-54
2022/03/26 05:31:12;;;;;;;1.00;1.00;;;;;;;7.42;47.49;96356.69;5094597;28;20468;-54
2022/03/26 05:33:41;;;;;;;0.73;0.73;;;;;;;7.61;46.93;96368.78;5094449;28;20468;-54
2022/03/26 05:36:09;;;;;;;0.40;0.30;;;;;;;7.94;45.28;96376.25;5094740;28;20436;-54
2022/03/26 05:38:38;;;;;;;0.30;0.20;;;;;;;8.18;44.60;96369.16;5094732;28;20416;-54
2022/03/26 05:41:07;;;;;;;0.40;0.30;;;;;;;8.32;43.09;96362.66;5094312;28;20429;-54
2022/03/26 05:43:35;;;;;;;3.30;0.50;;;;;;;8.64;42.59;96374.50;5093994;28;20428;-54
2022/03/26 05:46:04;;;;;;;3.73;1.33;;;;;;;8.84;41.77;96371.47;5094423;28;20428;-55
2022/03/26 05:48:34;;;;;;;0.40;0.40;;;;;;;9.02;42.25;96381.91;5094157;28;20439;-59
2022/03/26 05:51:03;;;;;;;0.43;0.43;;;;;;;9.06;42.01;96380.41;5094439;28;20821;-55
2022/03/26 05:53:32;;;;;;;7.37;0.60;;;;;;;9.32;43.12;96376.41;5094034;28;20471;-55
2022/03/26 05:56:00;;;;;;;0.47;0.43;;;;;;;9.23;41.95;96380.50;5094295;28;20464;-55
2022/03/26 05:58:29;;;;;;;0.30;0.23;;;;;;;9.72;40.00;96387.75;5093694;28;20861;-54
2022/03/26 06:00:58;;;;;;;0.50;0.30;;;;;;;9.82;39.68;96385.31;5093082;28;20432;-54
2022/03/26 06:03:28;;;;;;;0.40;0.40;;;;;;;8.57;43.05;96338.66;5093403;28;20443;-53
2022/03/26 06:05:59;;;;;;;6.17;1.43;;;;;;;8.62;44.44;96391.59;5093807;28;20996;-55
2022/03/26 06:08:28;;;;;;;0.90;0.80;;;;;;;8.38;43.56;96269.28;5093295;28;20464;-55
2022/03/26 06:10:57;;;;;;;0.60;0.30;;;;;;;9.23;44.12;96396.34;5093367;28;20995;-54
2022/03/26 06:13:26;;;;;;;3.30;1.70;;;;;;;9.56;44.14;96397.25;5093529;28;20471;-54
2022/03/26 06:15:55;;;;;;;0.73;0.50;;;;;;;8.70;44.75;96394.69;5093596;28;20443;-53
2022/03/26 06:18:24;;;;;;;1.33;1.23;;;;;;;9.37;43.84;96403.78;5093521;28;20482;-53
2022/03/26 06:20:53;;;;;;;0.47;0.47;;;;;;;10.06;41.81;96400.03;5093467;28;20424;-53
2022/03/26 06:23:23;;;;;;;4.83;1.47;;;;;;;10.94;41.63;96399.28;5093462;28;20436;-53
2022/03/26 06:25:52;;;;;;;1.13;1.13;;;;;;;11.05;41.84;96392.28;5093433;28;20429;-53
2022/03/26 06:28:21;;;;;;;0.30;0.23;;;;;;;12.21;38.59;96383.75;5093431;28;20508;-53
2022/03/26 06:30:51;;;;;;;2.87;0.60;;;;;;;13.10;36.91;96383.84;5093413;28;20910;-52
2022/03/26 06:33:22;;;;;;;3.90;0.90;;;;;;;12.99;36.78;96398.13;5093113;28;20521;-52
2022/03/26 06:35:51;;;;;;;1.70;1.70;;;;;;;11.77;37.95;96398.19;5093244;28;20485;-53
2022/03/26 06:38:20;;;;;;;2.20;1.67;;;;;;;11.87;37.88;96399.09;5093386;28;20424;-52
2022/03/26 06:40:51;;;;;;;0.53;0.53;;;;;;;12.15;37.51;96398.03;5093539;28;20450;-52
2022/03/26 06:43:20;;;;;;;1.57;1.10;;;;;;;12.00;36.97;96403.22;5093177;28;20428;-51
2022/03/26 06:45:50;;;;;;;1.00;0.50;;;;;;;13.17;36.50;96397.72;5092881;28;20444;-51
2022/03/26 06:48:19;;;;;;;3.83;0.73;;;;;;;13.07;34.83;96381.69;5093074;28;20434;-51
2022/03/26 06:50:48;;;;;;;2.23;1.60;;;;;;;13.54;35.52;96397.59;5092876;28;20432;-51
2022/03/26 06:53:17;;;;;;;0.50;0.40;;;;;;;14.30;33.47;96393.22;5092832;28;20471;-51
2022/03/26 06:55:46;;;;;;;0.63;0.30;;;;;;;13.83;33.58;96383.59;5093113;28;20769;-51
2022/03/26 06:58:16;;;;;;;1.07;1.07;;;;;;;13.51;33.47;96392.81;5092705;28;20428;-51
2022/03/26 07:00:45;;;;;;;0.60;0.60;;;;;;;13.84;33.09;96387.84;5092679;28;20440;-52
2022/03/26 07:03:15;;;;;;;4.83;1.13;;;;;;;14.42;33.07;96391.16;5092563;28;20490;-52
2022/03/26 07:05:44;;;;;;;3.13;1.03;;;;;;;15.10;31.88;96387.84;5092682;28;20456;-52
2022/03/26 07:08:13;;;;;;;0.43;0.40;;;;;;;15.05;30.93;96291.72;5091486;28;20494;-52
2022/03/26 07:10:45;;;;;;;1.23;0.50;;;;;;;16.14;30.58;96386.84;5092451;28;20428;-52
2022/03/26 07:13:14;;;;;;;0.33;0.30;;;;;;;16.09;30.95;96386.09;5092256;28;20430;-53
2022/03/26 07:15:45;;;;;;;2.33;1.40;;;;;;;14.77;30.50;96390.31;5092569;28;20417;-53
2022/03/26 07:18:15;;;;;;;0.40;0.30;;;;;;;15.63;30.08;96388.22;5092633;28;20896;-54
2022/03/26 07:20:44;;;;;;;6.73;2.47;;;;;;;14.95;30.95;96392.44;5092289;28;20789;-55
2022/03/26 07:23:13;;;;;;;1.80;1.03;;;;;;;14.72;34.58;96388.47;5092265;28;20443;-55
2022/03/26 07:25:43;;;;;;;2.63;0.70;;;;;;;15.37;33.52;96389.34;5092280;28;20451;-55
2022/03/26 07:28:13;;;;;;;0.50;0.50;;;;;;;16.27;30.83;96383.53;5092177;28;20428;-56
2022/03/26 07:30:42;;;;;;;0.50;0.40;;;;;;;17.12;31.42;96381.22;5092193;28;20930;-57
2022/03/26 07:33:13;;;;;;;0.53;0.50;;;;;;;17.10;30.56;96380.72;5090740;28;20424;-57
2022/03/26 07:35:42;;;;;;;0.50;0.40;;;;;;;16.48;29.48;96381.50;5092507;28;20428;-59
2022/03/26 07:38:11;;;;;;;2.67;2.33;;;;;;;16.19;32.30;96380.69;5092284;28;20436;-59
2022/03/26 07:40:40;;;;;;;1.27;1.27;;;;;;;17.14;30.28;96389.75;5092219;28;20428;-61
2022/03/26 07:43:09;;;;;;;0.70;0.70;;;;;;;18.02;28.31;96378.50;5091989;28;20431;-60
2022/03/26 07:45:39;;;;;;;0.63;0.63;;;;;;;18.73;27.97;96375.53;5092117;28;20773;-60
2022/03/26 07:48:08;;;;;;;1.00;1.00;;;;;;;18.59;29.46;96370.16;5092072;28;20912;-60
2022/03/26 07:50:41;;;;;;;1.63;0.87;;;;;;;18.10;27.69;96372.47;5092328;28;20439;-60
2022/03/26 07:53:12;;;;;;;1.40;1.03;;;;;;;18.45;26.90;96369.25;5091294;28;20423;-59
2022/03/26 07:55:43;;;;;;;2.30;0.57;;;;;;;19.13;26.72;96361.38;5091932;28;20808;-59
2022/03/26 07:58:13;;;;;;;1.67;1.53;;;;;;;17.94;27.68;96365.72;5091497;28;20424;-60
2022/03/26 08:00:42;;;;;;;0.80;0.80;;;;;;;18.51;27.38;96372.69;5092284;28;20428;-59
2022/03/26 08:03:13;;;;;;;1.77;1.57;;;;;;;18.61;26.21;96362.59;5091811;28;20440;-59
2022/03/26 08:05:44;;;;;;;0.50;0.40;;;;;;;18.52;28.28;96361.66;5091147;28;20920;-59
2022/03/26 08:08:13;;;;;;;3.27;0.80;;;;;;;19.13;27.01;96361.38;5091614;28;20475;-59
2022/03/26 08:10:42;;;;;;;1.40;1.20;;;;;;;18.73;26.35;96354.84;5091723;28;20432;-59
2022/03/26 08:13:13;;;;;;;4.10;0.70;;;;;;;19.16;25.49;96357.28;5091959;28;20435;-60
2022/03/26 08:15:43;;;;;;;0.93;0.93;;;;;;;19.18;24.60;96360.47;5091925;28;20464;-60
2022/03/26 08:18:12;;;;;;;0.60;0.60;;;;;;;20.21;24.14;96336.22;5092209;28;20440;-64
2022/03/26 08:20:41;;;;;;;1.23;1.17;;;;;;;20.36;23.02;96348.56;5100435;28;20422;-62
2022/03/26 08:23:12;;;;;;;0.83;0.80;;;;;;;20.21;23.70;96347.00;5098831;28;20519;-63
2022/03/26 08:28:27;;;;;;;2.13;0.63;;;;;;;21.09;23.38;96345.38;5095995;28;20432;-65
2022/03/26 08:30:57;;;;;;;1.23;1.13;;;;;;;19.46;24.95;96340.59;5095206;28;20511;-62
2022/03/26 08:33:26;;;;;;;1.13;1.03;;;;;;;19.59;23.90;96348.66;5095321;28;20511;-63
2022/03/26 08:35:55;;;;;;;1.17;1.17;;;;;;;21.43;24.08;96342.81;5094137;28;20456;-54
2022/03/26 08:38:26;;;;;;;1.70;0.70;;;;;;;21.45;23.64;96329.03;5095480;28;20439;-55
2022/03/26 08:40:55;;;;;;;0.80;0.60;;;;;;;23.14;22.22;96327.69;5095860;28;20431;-55
2022/03/26 08:43:24;;;;;;;5.17;0.50;;;;;;;23.32;21.45;96324.59;5094734;28;20440;-54
2022/03/26 08:45:53;;;;;;;1.33;0.80;;;;;;;22.88;20.11;96321.59;5095343;28;20451;-54
2022/03/26 08:48:23;;;;;;;1.57;1.47;;;;;;;22.29;20.12;96320.56;5095297;28;20436;-55
2022/03/26 08:50:52;;;;;;;1.63;0.60;;;;;;;21.77;20.72;96317.81;5095389;28;20439;-54
2022/03/26 08:53:22;;;;;;;1.03;1.03;;;;;;;21.39;20.94;96306.78;5095393;28;20424;-53
2022/03/26 08:55:53;;;;;;;1.13;1.13;;;;;;;22.26;20.89;96313.09;5095274;28;20466;-54
2022/03/26 08:58:22;;;;;;;3.37;0.70;;;;;;;22.11;20.92;96304.34;5095145;28;20436;-54
2022/03/26 09:00:52;;;;;;;0.60;0.60;;;;;;;24.16;19.25;96295.75;5094827;28;20451;-54
2022/03/26 09:03:22;;;;;;;4.23;1.30;;;;;;;24.10;19.42;96283.53;5094885;28;20497;-54
2022/03/26 09:05:57;;;;;;;9.30;3.80;;;;;;;23.69;18.06;96290.50;5094790;28;20424;-54
2022/03/26 09:08:26;;;;;;;4.90;1.37;;;;;;;23.11;17.74;96285.06;5094610;28;20475;-54
2022/03/26 09:10:56;;;;;;;1.00;1.00;;;;;;;23.53;18.32;96277.88;5094780;28;20447;-54
2022/03/26 09:13:24;;;;;;;0.70;0.37;;;;;;;25.50;17.66;96278.69;5094480;28;20497;-54
2022/03/26 09:15:52;;;;;;;0.50;0.43;;;;;;;26.39;15.73;96267.34;5094934;28;20609;-54
2022/03/26 09:18:22;;;;;;;0.67;0.60;;;;;;;24.52;17.33;96274.22;5094368;28;20432;-54
2022/03/26 09:20:50;;;;;;;0.60;0.50;;;;;;;24.85;17.17;96266.84;5094769;28;20420;-55
2022/03/26 09:23:19;;;;;;;1.93;0.70;;;;;;;25.42;16.92;96263.25;5094610;28;20858;-54
2022/03/26 09:25:47;;;;;;;4.87;0.77;;;;;;;26.23;16.30;96255.66;5094532;28;20479;-54
2022/03/26 09:28:17;;;;;;;2.10;2.00;;;;;;;25.23;17.94;96248.34;5094452;28;20497;-54
2022/03/26 09:30:45;;;;;;;1.57;1.27;;;;;;;24.12;16.98;96255.00;5094810;28;20481;-53
2022/03/26 09:33:14;;;;;;;0.90;0.50;;;;;;;25.13;16.66;96256.13;5094336;28;20432;-54
2022/03/26 09:35:42;;;;;;;0.60;0.60;;;;;;;24.84;16.85;96254.44;5094018;28;20872;-54
2022/03/26 09:38:11;;;;;;;1.90;0.60;;;;;;;25.16;16.80;96250.84;5094451;28;20428;-54
2022/03/26 09:40:42;;;;;;;0.50;0.50;;;;;;;26.10;17.21;96232.34;5094468;28;20412;-55
2022/03/26 09:43:13;;;;;;;1.43;0.53;;;;;;;25.36;18.54;96240.19;5094382;28;20425;-54
2022/03/26 09:45:43;;;;;;;0.80;0.73;;;;;;;25.89;17.06;96242.59;5094243;28;20464;-54
2022/03/26 09:48:11;;;;;;;0.73;0.73;;;;;;;25.79;17.39;96229.50;5094326;28;20437;-54
2022/03/26 09:50:43;;;;;;;1.13;1.13;;;;;;;26.27;16.73;96234.00;5094214;28;20924;-54
2022/03/26 09:53:12;;;;;;;0.70;0.70;;;;;;;24.99;17.28;96232.09;5094260;28;20440;-55
2022/03/26 09:55:43;;;;;;;0.40;0.40;;;;;;;26.28;17.96;96224.72;5094408;28;20468;-54
2022/03/26 09:58:12;;;;;;;0.57;0.57;;;;;;;26.08;17.63;96171.34;5093966;28;20432;-54
2022/03/26 10:00:41;;;;;;;1.70;1.07;;;;;;;25.44;16.75;96220.28;5093949;28;20458;-55
2022/03/26 10:03:11;;;;;;;0.97;0.87;;;;;;;27.17;16.90;96212.25;5093909;28;20828;-55
2022/03/26 10:05:39;;;;;;;2.53;1.23;;;;;;;26.16;16.83;96211.19;5094151;28;20416;-55
2022/03/26 10:08:17;;;;;;;1.30;1.20;;;;;;;28.37;15.87;96197.66;5093843;28;20472;-54
2022/03/26 10:10:46;;;;;;;0.80;0.60;;;;;;;28.23;15.85;96192.75;5093797;28;20428;-54
2022/03/26 10:13:34;;;;;;;0.57;0.57;;;;;;;27.15;16.19;96187.28;5093742;28;20959;-54
2022/03/26 10:16:03;;;;;;;0.77;0.77;;;;;;;25.88;17.00;96188.63;5093590;28;20475;-54
2022/03/26 10:18:37;;;;;;;1.43;0.87;;;;;;;25.98;18.88;96188.13;5093946;28;20909;-54
2022/03/26 10:21:11;;;;;;;1.53;1.07;;;;;;;27.00;17.08;96180.72;5093456;28;20464;-54
2022/03/26 10:23:43;;;;;;;2.27;1.83;;;;;;;26.23;16.39;96186.91;5093902;28;20820;-54
2022/03/26 10:26:14;;;;;;;0.73;0.70;;;;;;;27.14;16.24;96176.78;5092593;28;20439;-55
2022/03/26 10:28:44;;;;;;;2.03;1.60;;;;;;;26.96;15.57;96170.91;5093657;28;20854;-55
2022/03/26 10:34:10;;;;;;;0.70;0.70;;;;;;;27.37;14.92;96162.16;5093661;28;20865;-54
2022/03/26 10:36:40;;;;;;;0.77;0.77;;;;;;;26.14;14.69;96159.88;5093536;28;20477;-54
2022/03/26 10:39:15;;;;;;;0.83;0.83;;;;;;;27.65;14.08;96156.53;5093651;28;20481;-54
2022/03/26 10:41:44;;;;;;;1.20;0.60;;;;;;;27.30;13.85;96145.63;5093372;28;20459;-55
2022/03/26 10:44:14;;;;;;;0.40;0.40;;;;;;;28.83;14.08;96139.28;5093466;28;20469;-54
2022/03/26 10:46:44;;;;;;;0.50;0.50;;;;;;;29.61;12.77;96137.66;5093293;28;20515;-53
2022/03/26 10:49:24;;;;;;;0.53;0.53;;;;;;;29.21;13.79;96116.47;5092252;28;20460;-53
2022/03/26 10:51:53;;;;;;;1.80;1.70;;;;;;;27.44;12.89;96134.31;5092142;28;20953;-53
2022/03/26 10:54:30;;;;;;;0.73;0.63;;;;;;;26.94;14.33;96132.41;5092996;28;20463;-53
2022/03/26 10:56:59;;;;;;;1.17;1.07;;;;;;;27.88;13.87;96121.94;5092813;28;20502;-54
2022/03/26 10:59:29;;;;;;;0.60;0.60;;;;;;;28.81;12.88;96128.72;5092316;28;20452;-54
2022/03/26 11:01:58;;;;;;;1.17;0.67;;;;;;;30.58;12.16;96112.59;5092244;28;20420;-54
2022/03/26 11:04:28;;;;;;;0.97;0.97;;;;;;;28.23;13.23;96114.47;5092829;28;20479;-54
2022/03/26 11:06:58;;;;;;;0.50;0.40;;;;;;;28.64;11.94;96114.81;5092809;28;20452;-54
2022/03/26 11:09:27;;;;;;;0.60;0.50;;;;;;;28.35;11.92;96108.06;5092550;28;20910;-55
2022/03/26 11:11:58;;;;;;;0.83;0.83;;;;;;;28.88;11.48;96098.81;5092652;28;20420;-54
2022/03/26 11:14:37;;;;;;;2.10;0.63;;;;;;;27.94;13.28;96103.38;5092487;28;20997;-55
2022/03/26 11:17:22;;;;;;;0.83;0.73;;;;;;;27.44;11.42;96093.47;5092669;28;20563;-55
2022/03/26 11:20:11;;;;;;;0.67;0.67;;;;;;;27.03;12.88;96089.44;5092721;28;20428;-54
2022/03/26 11:22:58;;;;;;;11.10;0.93;;;;;;;27.25;13.64;96077.84;5092757;28;20953;-54
2022/03/26 11:26:04;;;;;;;0.50;0.50;;;;;;;26.87;13.03;96085.97;5092139;28;20436;-54
2022/03/26 11:28:44;;;;;;;1.53;0.50;;;;;;;28.70;12.81;96083.31;5092666;28;20428;-55
2022/03/26 11:31:20;;;;;;;1.57;0.93;;;;;;;27.03;12.60;96090.22;5092111;28;20424;-54
2022/03/26 11:33:49;;;;;;;1.43;1.33;;;;;;;26.76;13.11;96074.03;5092324;28;20796;-53
2022/03/26 11:36:20;;;;;;;5.20;0.83;;;;;;;27.50;12.52;96076.47;5092359;28;20507;-54
2022/03/26 11:38:56;;;;;;;0.70;0.70;;;;;;;27.53;12.57;96072.22;5092159;28;20952;-54
2022/03/26 11:41:32;;;;;;;0.70;0.50;;;;;;;28.05;13.15;96071.69;5092212;28;20518;-54
2022/03/26 11:44:01;;;;;;;2.30;0.73;;;;;;;27.46;13.55;96070.16;5092496;28;20861;-54
2022/03/26 11:52:19;;;;;;;1.43;0.60;;;;;;;26.82;14.24;96062.53;5092152;28;20519;-54
2022/03/26 11:54:48;;;;;;;1.57;1.47;;;;;;;25.65;15.33;96071.63;5092161;28;20420;-53
2022/03/26 11:57:19;;;;;;;0.60;0.57;;;;;;;25.89;15.11;96063.31;5091608;28;21008;-54
2022/03/26 11:59:48;;;;;;;0.70;0.70;;;;;;;27.53;14.73;96073.03;5091704;28;20509;-54
2022/03/26 12:02:23;;;;;;;2.17;1.03;;;;;;;26.32;15.42;96055.13;5091792;28;20511;-55